Pagina principale
METAR-TAF:

METAR-TAF

Aeroporti :

Aeroporto di Crotone

Crotone, Italia

latitudine: 39-00N, longitudine: 017-04E, altezza: 155 m

Osservazione

Il bollettino è stato emesso 53 minuti fa, alle 08:50 UTC
Vento 9 kt da ovest/sud-ovest
Temperature 19°C
Umidità 94%
Pressione 1018 hPa
Visibilità: 4000 m
Nuvoloso ad un'altezza di 1000 ft, Cumulonembo.
temporale, pioggia

METAR: LIBC 170850Z 25009KT 4000 TSRA BKN010CB 19/18 Q1018

Ora: 11:43 (09:43 UTC)

Previsione

Il bollettino è stato emesso 4 ore e 43 minuti fa, alle 05:00 UTC
Previsione valida dal 17 alle 06 UTC al 18 alle 06 UTC
Vento 10 kt da sud/sud-est
Visibilità 10 km o più
Nubi sparse ad un'altezza di 4000 ft
Temporaneamente
dal 17 alle 06 UTC al 17 alle 12 UTC
rovesci di pioggia

TAF: LIBC 170500Z 1706/1806 16010KT 9999 SCT040 TEMPO 1706/1712 SHRA

Osservazioni e previsioni meteorologiche di più di 4000 aeroporti (messaggi METAR e TAF).

Le stazioni disponibili sono rappresentate dai dischi gialli e rossi sulla carta.

Puntare il mouse per vedere il nome della stazione.

Clicca sopra per visualizzare le osservazioni e previsioni meteorologiche.

Per cambiare la mappa : fare clic sui pulsanti verdi con una croce nera per ingrandire, il pulsante verde con un trattino per diminuire, o sulla freccia verde per le mappe adiacenti.


METAR-TAF: